createdAt,value
2024-01-11T00:01:16.730Z,26.97
2024-01-11T00:03:44.836Z,30.60
2024-01-11T00:06:13.360Z,19.90
2024-01-11T00:08:41.441Z,22.23
2024-01-11T00:11:09.468Z,22.80
2024-01-11T00:13:37.557Z,17.43
2024-01-11T00:16:07.245Z,22.57
2024-01-11T00:18:35.261Z,32.13
2024-01-11T00:21:03.289Z,23.43
2024-01-11T00:23:31.289Z,20.90
2024-01-11T00:26:00.514Z,28.37
2024-01-11T00:28:28.582Z,30.00
2024-01-11T00:30:56.658Z,17.13
2024-01-11T00:33:26.112Z,30.37
2024-01-11T00:35:54.191Z,29.63
2024-01-11T00:38:22.330Z,24.40
2024-01-11T00:40:50.416Z,16.20
2024-01-11T00:43:18.534Z,30.33
2024-01-11T00:45:47.365Z,29.43
2024-01-11T00:48:15.517Z,17.57
2024-01-11T00:50:45.102Z,20.57
2024-01-11T00:53:15.469Z,21.03
2024-01-11T00:55:44.346Z,16.27
2024-01-11T00:58:12.320Z,22.40
2024-01-11T01:00:40.357Z,19.57
2024-01-11T01:03:08.652Z,29.33
2024-01-11T01:05:36.825Z,28.40
2024-01-11T01:08:06.744Z,27.30
2024-01-11T01:10:34.715Z,31.97
2024-01-11T01:13:02.660Z,38.20
2024-01-11T01:15:30.799Z,27.80
2024-01-11T01:17:59.192Z,28.77
2024-01-11T01:20:27.371Z,31.63
2024-01-11T01:22:55.338Z,31.33
2024-01-11T01:25:24.915Z,22.50
2024-01-11T01:27:52.903Z,37.07
2024-01-11T01:30:22.435Z,40.80
2024-01-11T01:32:50.565Z,27.80
2024-01-11T01:35:18.708Z,30.43
2024-01-11T01:37:46.801Z,24.67
2024-01-11T01:40:15.347Z,30.00
2024-01-11T01:42:46.037Z,30.53
2024-01-11T01:45:14.539Z,36.00
2024-01-11T01:47:43.760Z,19.67
2024-01-11T01:50:13.519Z,25.90
2024-01-11T01:52:44.791Z,23.20
2024-01-11T01:55:16.772Z,24.23
2024-01-11T01:57:47.840Z,18.70
2024-01-11T02:00:16.566Z,25.27
2024-01-11T02:02:47.042Z,28.73
2024-01-11T02:05:16.492Z,25.93
2024-01-11T02:07:45.218Z,30.50
2024-01-11T02:10:13.841Z,39.77
2024-01-11T02:12:43.486Z,16.20
2024-01-11T02:15:12.989Z,28.60
2024-01-11T02:17:43.316Z,29.07
2024-01-11T02:20:13.046Z,19.50
2024-01-11T02:22:44.072Z,26.67
2024-01-11T02:25:13.594Z,26.97
2024-01-11T02:27:51.898Z,31.00
2024-01-11T02:30:20.375Z,19.43
2024-01-11T02:32:50.625Z,33.80
2024-01-11T02:35:20.374Z,19.23
2024-01-11T02:37:49.524Z,23.30
2024-01-11T02:40:20.819Z,23.67
2024-01-11T02:42:48.964Z,22.93
2024-01-11T02:45:17.208Z,24.73
2024-01-11T02:47:45.223Z,24.47
2024-01-11T02:50:13.946Z,24.93
2024-01-11T02:52:42.019Z,26.10
2024-01-11T02:55:10.495Z,25.83
2024-01-11T02:57:39.914Z,21.80
2024-01-11T03:00:09.017Z,29.57
2024-01-11T03:02:37.196Z,28.10
2024-01-11T03:05:05.706Z,38.03
2024-01-11T03:07:34.261Z,16.37
2024-01-11T03:10:02.562Z,17.30
2024-01-11T03:12:30.603Z,21.13
2024-01-11T03:15:00.301Z,33.73
2024-01-11T03:17:28.285Z,28.57
2024-01-11T03:19:56.432Z,23.63
2024-01-11T03:22:24.433Z,26.77
2024-01-11T03:24:52.414Z,24.27
2024-01-11T03:27:20.594Z,28.30
2024-01-11T03:29:48.548Z,18.47
2024-01-11T03:32:18.037Z,17.77
2024-01-11T03:34:46.214Z,21.53
2024-01-11T03:37:14.189Z,17.07
2024-01-11T03:39:42.286Z,21.43
2024-01-11T03:42:10.266Z,15.37
2024-01-11T03:44:39.474Z,13.33
2024-01-11T03:47:07.644Z,15.63
2024-01-11T03:49:37.096Z,10.30
2024-01-11T03:52:05.547Z,12.23
2024-01-11T03:54:33.682Z,10.00
2024-01-11T03:57:01.865Z,9.00
2024-01-11T03:59:29.876Z,9.70
2024-01-11T04:01:58.018Z,12.80
2024-01-11T04:04:26.104Z,12.13
2024-01-11T04:06:55.401Z,18.03
2024-01-11T04:09:23.341Z,11.63
2024-01-11T04:11:51.364Z,8.20
2024-01-11T04:14:19.337Z,8.33
2024-01-11T04:16:47.556Z,8.47
2024-01-11T04:19:16.299Z,9.47
2024-01-11T04:21:45.325Z,12.07
2024-01-11T04:24:14.667Z,9.63
2024-01-11T04:26:42.719Z,11.43
2024-01-11T04:29:10.777Z,11.50
2024-01-11T04:31:38.971Z,8.17
2024-01-11T04:34:07.070Z,6.50
2024-01-11T04:36:35.188Z,8.17
2024-01-11T04:39:03.191Z,11.13
2024-01-11T04:41:32.574Z,9.87
2024-01-11T04:44:00.618Z,7.03
2024-01-11T04:46:28.672Z,6.60
2024-01-11T04:48:56.767Z,10.93
2024-01-11T04:51:24.802Z,11.27
2024-01-11T04:53:52.828Z,5.53
2024-01-11T04:56:20.820Z,7.17
2024-01-11T04:58:50.257Z,5.43
2024-01-11T05:01:19.239Z,7.40
2024-01-11T05:03:48.443Z,6.03
2024-01-11T05:06:20.565Z,8.90
2024-01-11T05:08:49.247Z,10.93
2024-01-11T05:11:20.470Z,10.23
2024-01-11T05:13:50.696Z,9.93
2024-01-11T05:16:23.806Z,5.60
2024-01-11T05:18:52.526Z,7.37
2024-01-11T05:21:20.885Z,5.43
2024-01-11T05:23:49.705Z,5.50
2024-01-11T05:26:19.101Z,8.70
2024-01-11T05:28:47.276Z,9.13
2024-01-11T05:31:18.794Z,5.33
2024-01-11T05:33:48.057Z,5.53
2024-01-11T05:36:17.268Z,7.63
2024-01-11T05:38:45.411Z,7.20
2024-01-11T05:41:13.527Z,5.10
2024-01-11T05:43:43.725Z,7.67
2024-01-11T05:46:11.761Z,8.87
2024-01-11T05:48:41.308Z,10.43
2024-01-11T05:51:10.703Z,7.97
2024-01-11T05:53:39.235Z,6.77
2024-01-11T05:56:10.320Z,7.63
2024-01-11T05:58:39.153Z,7.47
2024-01-11T06:01:07.435Z,9.90
2024-01-11T06:03:36.086Z,14.10
2024-01-11T06:06:06.421Z,10.97
2024-01-11T06:08:34.486Z,9.17
2024-01-11T06:11:02.585Z,6.00
2024-01-11T06:13:30.597Z,10.90
2024-01-11T06:15:58.805Z,9.13
2024-01-11T06:18:27.097Z,10.37
2024-01-11T06:20:55.246Z,10.73
2024-01-11T06:23:26.791Z,6.00
2024-01-11T06:25:54.869Z,11.10
2024-01-11T06:28:22.953Z,8.43
2024-01-11T06:30:51.268Z,8.20
2024-01-11T06:33:19.474Z,13.83
2024-01-11T06:35:47.662Z,6.43
2024-01-11T06:38:15.954Z,12.73
2024-01-11T06:40:45.418Z,11.57
2024-01-11T06:43:13.642Z,12.07
2024-01-11T06:45:41.601Z,9.30
2024-01-11T06:48:09.777Z,13.63
2024-01-11T06:50:37.888Z,7.87
2024-01-11T06:53:06.101Z,8.10
2024-01-11T06:55:34.149Z,8.73
2024-01-11T06:58:04.068Z,16.00
2024-01-11T07:00:32.163Z,9.30
2024-01-11T07:03:00.363Z,11.07
2024-01-11T07:05:28.431Z,6.37
2024-01-11T07:07:56.564Z,9.83
2024-01-11T07:10:24.619Z,8.30
2024-01-11T07:12:52.706Z,6.33
2024-01-11T07:15:22.232Z,12.50
2024-01-11T07:17:50.492Z,8.70
2024-01-11T07:20:20.126Z,14.03
2024-01-11T07:22:48.238Z,9.80
2024-01-11T07:25:16.372Z,12.30
2024-01-11T07:27:44.590Z,17.50
2024-01-11T07:30:14.028Z,15.00
2024-01-11T07:32:44.072Z,7.53
2024-01-11T07:35:16.486Z,12.43
2024-01-11T07:37:47.003Z,12.50
2024-01-11T07:40:15.180Z,9.00
2024-01-11T07:42:44.069Z,13.57
2024-01-11T07:45:12.779Z,16.73
2024-01-11T07:47:41.561Z,12.17
2024-01-11T07:50:11.916Z,13.30
2024-01-11T07:52:42.414Z,12.03
2024-01-11T07:55:13.689Z,15.00
2024-01-11T07:57:42.471Z,18.87
2024-01-11T08:00:11.404Z,23.20
2024-01-11T08:02:40.344Z,16.23
2024-01-11T08:05:10.682Z,13.90
2024-01-11T08:07:38.855Z,17.40
2024-01-11T08:10:08.245Z,18.87
2024-01-11T08:12:36.298Z,15.30
2024-01-11T08:15:04.350Z,13.90
2024-01-11T08:17:32.553Z,14.93
2024-01-11T08:20:00.848Z,16.10
2024-01-11T08:22:34.872Z,13.23
2024-01-11T08:25:03.223Z,17.63
2024-01-11T08:27:31.230Z,16.87
2024-01-11T08:30:01.337Z,14.33
2024-01-11T08:32:32.202Z,14.93
2024-01-11T08:35:01.215Z,18.20
2024-01-11T08:37:30.811Z,20.50
2024-01-11T08:39:58.902Z,20.17
2024-01-11T08:42:26.887Z,21.60
2024-01-11T08:44:56.007Z,21.27
2024-01-11T08:47:24.834Z,22.57
2024-01-11T08:49:52.948Z,17.20
2024-01-11T08:52:21.110Z,22.50
2024-01-11T08:54:50.504Z,13.07
2024-01-11T08:57:18.628Z,17.77
2024-01-11T08:59:46.782Z,14.77
2024-01-11T09:02:20.529Z,21.37
2024-01-11T09:04:50.046Z,7.33
2024-01-11T09:07:18.156Z,14.87
2024-01-11T09:09:53.610Z,21.50
2024-01-11T09:12:26.205Z,16.23
2024-01-11T09:14:57.196Z,16.40
2024-01-11T09:17:25.337Z,21.63
2024-01-11T09:19:54.135Z,14.53
2024-01-11T09:22:22.211Z,18.00
2024-01-11T09:24:50.264Z,24.83
2024-01-11T09:27:18.202Z,19.67
2024-01-11T09:29:48.046Z,18.87
2024-01-11T09:32:16.223Z,15.23
2024-01-11T09:34:46.520Z,22.40
2024-01-11T09:37:14.789Z,18.80
2024-01-11T09:39:43.718Z,14.67
2024-01-11T09:42:12.312Z,18.13
2024-01-11T09:44:41.270Z,18.73
2024-01-11T09:47:16.059Z,15.33
2024-01-11T09:49:46.751Z,15.00
2024-01-11T09:52:16.258Z,25.43
2024-01-11T09:54:44.500Z,22.43
2024-01-11T09:57:12.437Z,21.23
2024-01-11T09:59:41.362Z,20.90
2024-01-11T10:02:13.525Z,14.37
2024-01-11T10:04:44.462Z,19.73
2024-01-11T10:07:12.755Z,16.33
2024-01-11T10:09:40.820Z,24.63
2024-01-11T10:12:10.295Z,18.13
2024-01-11T10:14:38.428Z,18.23
2024-01-11T10:17:06.622Z,20.57
2024-01-11T10:19:36.099Z,21.57
2024-01-11T10:22:05.986Z,28.87
2024-01-11T10:24:36.408Z,17.37
2024-01-11T10:27:05.126Z,21.90
2024-01-11T10:29:34.142Z,27.20
2024-01-11T10:32:02.243Z,31.77
2024-01-11T10:34:30.276Z,21.33
2024-01-11T10:36:59.946Z,24.37
2024-01-11T10:39:29.082Z,19.57
2024-01-11T10:42:07.724Z,23.13
2024-01-11T10:44:37.611Z,33.17
2024-01-11T10:47:08.473Z,22.67
2024-01-11T10:49:41.446Z,18.40
2024-01-11T10:52:14.092Z,24.27
2024-01-11T10:54:43.962Z,21.77
2024-01-11T10:57:12.387Z,23.13
2024-01-11T10:59:44.562Z,19.57
2024-01-11T11:02:15.954Z,20.43
2024-01-11T11:04:45.905Z,21.47
2024-01-11T11:07:17.784Z,23.60
2024-01-11T11:09:47.195Z,23.70
2024-01-11T11:12:16.358Z,14.73
2024-01-11T11:14:46.189Z,23.63
2024-01-11T11:17:16.576Z,21.30
2024-01-11T11:19:44.919Z,30.23
2024-01-11T11:22:17.195Z,23.43
2024-01-11T11:24:45.711Z,33.07
2024-01-11T11:27:15.958Z,28.30
2024-01-11T11:29:49.060Z,27.73
2024-01-11T11:32:17.783Z,21.63
2024-01-11T11:34:46.801Z,24.07
2024-01-11T11:37:25.186Z,22.33
2024-01-11T11:39:53.261Z,28.50
2024-01-11T11:42:24.331Z,41.95
2024-01-11T11:44:53.371Z,25.40
2024-01-11T11:47:23.725Z,23.73
2024-01-11T11:50:07.376Z,26.07
2024-01-11T11:52:39.098Z,27.40
2024-01-11T11:55:09.175Z,24.60
2024-01-11T11:57:37.839Z,31.37
2024-01-11T12:00:07.552Z,25.47
2024-01-11T12:02:37.310Z,24.03
2024-01-11T12:05:06.612Z,26.23
2024-01-11T12:07:36.453Z,33.13
2024-01-11T12:10:04.811Z,29.30
2024-01-11T12:12:33.173Z,23.43
2024-01-11T12:15:01.367Z,30.57
2024-01-11T12:17:29.574Z,30.47
2024-01-11T12:19:57.724Z,26.63
2024-01-11T12:22:26.395Z,25.70
2024-01-11T12:24:55.839Z,26.33
2024-01-11T12:27:24.053Z,34.43
2024-01-11T12:29:56.622Z,41.07
2024-01-11T12:32:28.336Z,37.43
2024-01-11T12:34:56.737Z,27.43
2024-01-11T12:37:25.018Z,39.93
2024-01-11T12:40:00.936Z,24.07
2024-01-11T12:42:29.418Z,37.60
2024-01-11T12:44:59.540Z,29.53
2024-01-11T12:47:28.354Z,26.03
2024-01-11T12:49:57.298Z,29.97
2024-01-11T12:52:28.209Z,32.10
2024-01-11T12:54:57.840Z,28.53
2024-01-11T12:57:27.927Z,33.10
2024-01-11T12:59:55.971Z,27.97
2024-01-11T13:02:24.481Z,29.73
2024-01-11T13:04:53.190Z,37.40
2024-01-11T13:07:24.094Z,34.30
2024-01-11T13:09:52.092Z,25.97
2024-01-11T13:12:22.006Z,23.57
2024-01-11T13:14:52.144Z,42.60
2024-01-11T13:17:21.426Z,41.00
2024-01-11T13:19:49.543Z,41.40
2024-01-11T13:22:17.573Z,35.73
2024-01-11T13:24:45.615Z,35.30
2024-01-11T13:27:13.695Z,32.87
2024-01-11T13:29:41.630Z,30.83
2024-01-11T13:32:11.761Z,24.87
2024-01-11T13:34:40.769Z,40.80
2024-01-11T13:37:08.911Z,30.07
2024-01-11T13:39:36.866Z,32.90
2024-01-11T13:42:10.260Z,34.80
2024-01-11T13:44:38.395Z,39.57
2024-01-11T13:47:06.518Z,31.33
2024-01-11T13:49:36.048Z,37.00
2024-01-11T13:52:05.692Z,25.90
2024-01-11T13:54:33.793Z,24.40
2024-01-11T13:57:03.770Z,30.20
2024-01-11T13:59:31.757Z,28.43
2024-01-11T14:01:59.726Z,32.30
2024-01-11T14:04:27.721Z,34.37
2024-01-11T14:06:57.389Z,36.13
2024-01-11T14:09:25.545Z,30.33
2024-01-11T14:11:53.608Z,30.43
2024-01-11T14:14:21.815Z,31.60
2024-01-11T14:16:50.370Z,42.03
2024-01-11T14:19:18.482Z,27.77
2024-01-11T14:21:46.582Z,33.13
2024-01-11T14:24:20.320Z,31.20
2024-01-11T14:26:51.747Z,22.87
2024-01-11T14:29:19.823Z,33.20
2024-01-11T14:31:48.111Z,28.63
2024-01-11T14:34:16.330Z,27.77
2024-01-11T14:36:44.363Z,30.80
2024-01-11T14:39:12.275Z,27.43
2024-01-11T14:41:41.651Z,35.63
2024-01-11T14:44:10.727Z,26.20
2024-01-11T14:46:38.822Z,26.87
2024-01-11T14:49:09.153Z,28.83
2024-01-11T14:51:38.481Z,28.50
2024-01-11T14:54:06.649Z,33.70
2024-01-11T14:56:36.695Z,30.83
2024-01-11T14:59:06.107Z,28.30
2024-01-11T15:01:34.583Z,28.17
2024-01-11T15:04:02.603Z,27.90
2024-01-11T15:06:30.655Z,24.70
2024-01-11T15:08:58.786Z,26.47
2024-01-11T15:11:26.770Z,25.70
2024-01-11T15:13:54.938Z,21.70
2024-01-11T15:16:24.340Z,24.70
2024-01-11T15:18:52.363Z,25.13
2024-01-11T15:21:20.558Z,30.10
2024-01-11T15:23:48.600Z,23.03
2024-01-11T15:26:16.769Z,24.87
2024-01-11T15:28:44.885Z,26.10
2024-01-11T15:31:13.157Z,27.57
2024-01-11T15:33:42.912Z,25.53
2024-01-11T15:36:11.269Z,25.67
2024-01-11T15:38:39.272Z,22.10
2024-01-11T15:41:07.314Z,30.73
2024-01-11T15:43:35.304Z,26.13
2024-01-11T15:46:03.711Z,22.60
2024-01-11T15:48:32.003Z,27.40
2024-01-11T15:51:02.403Z,29.40
2024-01-11T15:53:32.047Z,31.50
2024-01-11T15:56:00.020Z,22.17
2024-01-11T15:58:28.124Z,18.83
2024-01-11T16:00:56.197Z,27.57
2024-01-11T16:03:24.901Z,26.90
2024-01-11T16:05:52.987Z,27.10
2024-01-11T16:08:22.415Z,27.33
2024-01-11T16:10:50.513Z,24.23
2024-01-11T16:13:18.875Z,35.73
2024-01-11T16:15:47.115Z,28.93
2024-01-11T16:18:15.897Z,36.47
2024-01-11T16:20:44.411Z,27.03
2024-01-11T16:23:12.487Z,40.57
2024-01-11T16:25:41.817Z,30.00
2024-01-11T16:28:09.857Z,47.83
2024-01-11T16:30:37.919Z,33.30
2024-01-11T16:33:06.401Z,37.10
2024-01-11T16:35:41.451Z,36.77
2024-01-11T16:38:17.527Z,31.77
2024-01-11T16:40:46.917Z,34.20
2024-01-11T16:43:14.974Z,28.97
2024-01-11T16:45:42.970Z,27.17
2024-01-11T16:48:17.873Z,34.70
2024-01-11T16:50:46.662Z,30.93
2024-01-11T16:53:14.641Z,34.00
2024-01-11T16:55:42.857Z,40.60
2024-01-11T16:58:12.636Z,26.93
2024-01-11T17:00:41.224Z,23.00
2024-01-11T17:03:10.949Z,36.33
2024-01-11T17:05:39.054Z,30.63
2024-01-11T17:08:07.504Z,25.87
2024-01-11T17:10:37.979Z,26.50
2024-01-11T17:13:06.151Z,32.77
2024-01-11T17:15:35.562Z,41.20
2024-01-11T17:18:03.693Z,29.30
2024-01-11T17:20:32.992Z,37.20
2024-01-11T17:23:01.029Z,34.67
2024-01-11T17:25:28.980Z,35.17
2024-01-11T17:27:57.151Z,37.13
2024-01-11T17:30:25.222Z,30.27
2024-01-11T17:32:56.448Z,39.00
2024-01-11T17:35:24.730Z,34.47
2024-01-11T17:37:52.644Z,34.33
2024-01-11T17:40:20.642Z,27.50
2024-01-11T17:42:48.848Z,34.63
2024-01-11T17:45:17.110Z,31.87
2024-01-11T17:47:45.926Z,26.00
2024-01-11T17:50:16.410Z,32.27
2024-01-11T17:52:47.086Z,30.03
2024-01-11T17:55:16.104Z,35.97
2024-01-11T17:57:44.189Z,31.50
2024-01-11T18:00:13.793Z,38.90
2024-01-11T18:02:42.048Z,28.00
2024-01-11T18:05:11.246Z,34.43
2024-01-11T18:07:40.971Z,41.47
2024-01-11T18:10:09.757Z,46.17
2024-01-11T18:12:37.781Z,31.93
2024-01-11T18:15:06.626Z,21.83
2024-01-11T18:17:36.519Z,27.73
2024-01-11T18:20:06.245Z,29.00
2024-01-11T18:22:34.978Z,26.53
2024-01-11T18:25:04.423Z,29.87
2024-01-11T18:27:32.601Z,25.37
2024-01-11T18:30:00.837Z,31.90
2024-01-11T18:32:29.080Z,22.90
2024-01-11T18:34:58.560Z,25.20
2024-01-11T18:37:27.558Z,28.53
2024-01-11T18:39:56.062Z,30.30
2024-01-11T18:42:26.165Z,30.03
2024-01-11T18:44:54.707Z,23.57
2024-01-11T18:47:23.101Z,28.00
2024-01-11T18:49:51.115Z,24.90
2024-01-11T18:52:19.199Z,24.27
2024-01-11T18:54:53.575Z,19.30
2024-01-11T18:57:22.405Z,28.90
2024-01-11T18:59:52.173Z,36.50
2024-01-11T19:02:20.319Z,19.03
2024-01-11T19:04:49.124Z,25.70
2024-01-11T19:07:18.037Z,37.20
2024-01-11T19:09:46.292Z,30.17
2024-01-11T19:12:14.375Z,25.83
2024-01-11T19:14:42.445Z,35.07
2024-01-11T19:17:11.819Z,34.60
2024-01-11T19:19:39.890Z,34.50
2024-01-11T19:22:08.145Z,33.03
2024-01-11T19:24:38.840Z,33.30
2024-01-11T19:27:07.458Z,29.50
2024-01-11T19:29:35.470Z,26.73
2024-01-11T19:32:03.456Z,23.53
2024-01-11T19:34:32.856Z,33.57
2024-01-11T19:37:01.060Z,20.80
2024-01-11T19:39:29.044Z,39.43
2024-01-11T19:41:57.162Z,32.67
2024-01-11T19:44:28.473Z,32.47
2024-01-11T19:46:56.977Z,34.53
2024-01-11T19:49:25.163Z,38.77
2024-01-11T19:51:54.691Z,36.23
2024-01-11T19:54:22.606Z,38.63
2024-01-11T19:56:50.600Z,48.07
2024-01-11T19:59:19.299Z,39.50
2024-01-11T20:01:47.376Z,32.93
2024-01-11T20:04:15.505Z,33.27
2024-01-11T20:06:44.529Z,36.30
2024-01-11T20:09:16.475Z,29.63
2024-01-11T20:11:44.813Z,35.43
2024-01-11T20:14:13.557Z,37.13
2024-01-11T20:16:41.736Z,37.00
2024-01-11T20:19:10.018Z,33.37
2024-01-11T20:21:38.304Z,40.30
2024-01-11T20:24:07.326Z,29.20
2024-01-11T20:26:37.366Z,27.20
2024-01-11T20:29:05.483Z,27.40
2024-01-11T20:31:34.652Z,39.20
2024-01-11T20:34:03.654Z,30.53
2024-01-11T20:36:32.037Z,36.67
2024-01-11T20:39:00.536Z,30.23
2024-01-11T20:41:28.654Z,30.67
2024-01-11T20:43:58.154Z,20.87
2024-01-11T20:46:26.631Z,36.87
2024-01-11T20:48:54.821Z,28.33
2024-01-11T20:51:23.427Z,29.73
2024-01-11T20:53:56.297Z,21.27
2024-01-11T20:56:24.986Z,29.87
2024-01-11T20:58:53.203Z,32.90
2024-01-11T21:01:22.998Z,29.07
2024-01-11T21:03:51.332Z,32.00
2024-01-11T21:06:19.692Z,33.60
2024-01-11T21:08:48.088Z,23.67
2024-01-11T21:11:21.687Z,26.70
2024-01-11T21:13:49.924Z,30.90
2024-01-11T21:16:18.131Z,36.00
2024-01-11T21:18:49.875Z,36.57
2024-01-11T21:21:19.007Z,30.83
2024-01-11T21:23:47.015Z,35.93
2024-01-11T21:26:15.133Z,28.50
2024-01-11T21:28:43.054Z,38.83
2024-01-11T21:31:11.068Z,29.23
2024-01-11T21:33:44.745Z,33.17
2024-01-11T21:36:14.094Z,28.07
2024-01-11T21:38:42.016Z,32.13
2024-01-11T21:41:10.088Z,34.17
2024-01-11T21:43:38.061Z,37.47
2024-01-11T21:46:08.757Z,31.37
2024-01-11T21:48:36.929Z,30.37
2024-01-11T21:51:05.592Z,24.70
2024-01-11T21:53:36.083Z,34.43
2024-01-11T21:56:04.467Z,32.80
2024-01-11T21:58:34.107Z,35.70
2024-01-11T22:01:02.196Z,35.60
2024-01-11T22:03:30.413Z,37.93
2024-01-11T22:05:59.041Z,34.47
2024-01-11T22:08:27.133Z,32.87
2024-01-11T22:10:57.106Z,39.90
2024-01-11T22:13:26.045Z,30.47
2024-01-11T22:15:54.007Z,28.27
2024-01-11T22:18:22.409Z,32.03
2024-01-11T22:20:50.559Z,36.60
2024-01-11T22:23:18.736Z,38.60
2024-01-11T22:25:46.674Z,37.37
2024-01-11T22:28:18.157Z,36.33
2024-01-11T22:30:46.342Z,40.90
2024-01-11T22:33:24.861Z,39.00
2024-01-11T22:35:52.916Z,28.67
2024-01-11T22:38:19.861Z,40.43
2024-01-11T22:40:48.842Z,42.13
2024-01-11T22:43:18.218Z,32.70
2024-01-11T22:45:46.347Z,34.93
2024-01-11T22:48:14.556Z,32.03
2024-01-11T22:50:42.552Z,31.77
2024-01-11T22:53:10.610Z,33.87
2024-01-11T22:55:38.679Z,29.37
2024-01-11T22:58:06.609Z,35.60
2024-01-11T23:00:36.658Z,32.63
2024-01-11T23:03:04.826Z,33.10
2024-01-11T23:05:34.695Z,29.20
2024-01-11T23:08:02.659Z,29.97
2024-01-11T23:10:31.548Z,35.30
2024-01-11T23:12:59.519Z,35.77
2024-01-11T23:15:27.416Z,32.33
2024-01-11T23:17:56.831Z,33.20
2024-01-11T23:20:24.793Z,24.13
2024-01-11T23:22:52.682Z,33.40
2024-01-11T23:25:20.775Z,34.90
2024-01-11T23:27:48.672Z,28.07
2024-01-11T23:30:16.866Z,30.53
2024-01-11T23:32:44.921Z,27.87
2024-01-11T23:35:14.276Z,26.60
2024-01-11T23:37:42.180Z,35.50
2024-01-11T23:40:11.202Z,36.33
2024-01-11T23:42:39.113Z,35.40
2024-01-11T23:45:07.985Z,34.60
2024-01-11T23:47:36.843Z,27.70
2024-01-11T23:50:05.205Z,30.20
2024-01-11T23:52:34.506Z,22.90
2024-01-11T23:55:02.418Z,31.40
2024-01-11T23:57:30.457Z,33.77
2024-01-11T23:59:58.454Z,30.97
